Eckman, North Dakota
Current Conditions -  °F | °C
As of 9:58 AM on Thursday 27 Nov 2014 (Local Time) from KMIB Reporting Station
Broken Clouds Broken Clouds  
Wind Chill: -11°   Ceiling: 11000
Heat Index:   Visibility: 10mi
Dew Point: -2°   Wind: 7mph
Humidity: 85%   Direction: 130°SE
Pressure: 30.21"   Gusts: NA
Location:  48.7978°N, 101.326°W
Report Text: KMIB 271558Z AUTO 13006KT 10SM SCT004 BKN110 M17/M19 A3021 RMK AO2 VIS 1/4 RWY29 SLP294
Loading
Personal Weather Stations






























Interactive Weather Map New forecast layout! Learn more

10-Day Weather Forecast

Advertisements
Track Severe Weather on mobile